Terminal Aerodrome Forecast
Issued by NWS

Home | Current Version | Previous Version | Graphics & Text | Print | Product List | Glossary On
Versions: 1 2 3 4 5 6 7 8 9 10 11 12 13 14 15 16 17 18 19 20
000
FTUS43 KIWX 100208 AAA
TAFSBN
TAF AMD
KSBN 100208Z 1002/1024 32006KT P6SM OVC015
      TEMPO 1002/1003 5SM -SN BR
     FM100400 30007KT P6SM BKN025
     FM101000 22006KT P6SM BKN080
     FM101500 23012KT P6SM BKN060=

USA.gov is the U.S. government's official web portal to all federal, state and local government web resources and services.